| Date | Time | Temp. (oF) | Dew Point (oF) | Rel. Hum. (%) | Press. (in.) | Wind Dir. | Wind Speed (mph) | Hourly Rainfall (in.) |
|
|---|---|---|---|---|---|---|---|---|---|
| 1 | 01/24 | 00:00 | 8 | 0 | 69 | 29.99 | NW | 16 | 0.00 |
| 2 | 01/23 | 23:00 | 9 | 4 | 81 | 29.98 | NW | 10 | 0.00 |
| 3 | 01/23 | 22:00 | 10 | 4 | 78 | 29.95 | NNW | 11 | 0.00 |
| 4 | 01/23 | 21:00 | 12 | 6 | 77 | 29.91 | WNW | 8 | 0.00 |
| 5 | 01/23 | 20:00 | 13 | 1 | 60 | 29.89 | WNW | 13 | 0.00 |
| 6 | 01/23 | 19:00 | 12 | 0 | 58 | 29.89 | WNW | 11 | 0.00 |
| 7 | 01/23 | 18:00 | 13 | 0 | 55 | 29.88 | WNW | 11 | 0.00 |
| 8 | 01/23 | 17:00 | 14 | -1 | 50 | 29.88 | W | 10 | 0.00 |
| 9 | 01/23 | 16:00 | 15 | 0 | 49 | 29.89 | W | 23 | 0.00 |
| 10 | 01/23 | 15:00 | 16 | -2 | 44 | 29.88 | NW | 16 | 0.00 |
| 11 | 01/23 | 14:00 | 17 | -1 | 43 | 29.88 | NW | 15 | 0.00 |
| 12 | 01/23 | 13:00 | 16 | -2 | 43 | 29.91 | NW | 13 | 0.00 |
| 13 | 01/23 | 12:00 | 15 | -1 | 47 | 29.94 | W | 10 | 0.00 |
| 14 | 01/23 | 11:00 | 13 | -2 | 50 | 29.98 | NW | 6 | 0.00 |
| 15 | 01/23 | 10:00 | 11 | -2 | 55 | 30.00 | WNW | 7 | 0.00 |
| 16 | 01/23 | 09:00 | 9 | -2 | 59 | 30.03 | WNW | 15 | 0.00 |
| 17 | 01/23 | 08:00 | 7 | -2 | 64 | 30.05 | WNW | 10 | 0.00 |
| 18 | 01/23 | 07:00 | 7 | -2 | 64 | 30.06 | WSW | 4 | 0.00 |
| 19 | 01/23 | 06:00 | 8 | -1 | 63 | 30.06 | WNW | 10 | 0.00 |
| 20 | 01/23 | 05:00 | 9 | -1 | 63 | 30.08 | WNW | 10 | 0.00 |
| 21 | 01/23 | 04:00 | 9 | -1 | 63 | 30.07 | WNW | 11 | 0.00 |
| 22 | 01/23 | 03:00 | 9 | -1 | 63 | 30.09 | NW | 6 | 0.00 |
| 23 | 01/23 | 02:00 | 10 | 0 | 61 | 30.11 | NW | 7 | 0.00 |
| 24 | 01/23 | 01:00 | 11 | 0 | 59 | 30.11 | NW | 7 | 0.00 |